createdAt,value
2023-01-18T00:00:27.942Z,6.63
2023-01-18T00:02:56.800Z,9.13
2023-01-18T00:05:25.804Z,5.50
2023-01-18T00:07:54.541Z,7.37
2023-01-18T00:10:23.504Z,6.53
2023-01-18T00:12:53.179Z,6.63
2023-01-18T00:15:21.570Z,6.60
2023-01-18T00:17:51.662Z,5.27
2023-01-18T00:20:21.170Z,6.90
2023-01-18T00:22:49.446Z,5.83
2023-01-18T00:25:17.876Z,5.60
2023-01-18T00:27:47.408Z,5.97
2023-01-18T00:30:18.483Z,9.43
2023-01-18T00:32:46.831Z,5.57
2023-01-18T00:35:15.473Z,9.53
2023-01-18T00:37:45.180Z,5.97
2023-01-18T00:40:13.871Z,6.47
2023-01-18T00:43:00.524Z,7.10
2023-01-18T00:45:30.481Z,5.87
2023-01-18T00:47:59.246Z,7.37
2023-01-18T00:50:27.699Z,9.90
2023-01-18T00:52:57.741Z,8.07
2023-01-18T00:55:26.404Z,7.63
2023-01-18T00:57:54.741Z,9.43
2023-01-18T01:00:28.736Z,10.43
2023-01-18T01:02:58.735Z,9.27
2023-01-18T01:05:45.781Z,10.57
2023-01-18T01:08:17.017Z,6.73
2023-01-18T01:10:46.381Z,7.70
2023-01-18T01:13:32.650Z,6.30
2023-01-18T01:16:18.612Z,6.87
2023-01-18T01:19:06.104Z,10.13
2023-01-18T01:21:52.214Z,9.97
2023-01-18T01:24:38.177Z,10.27
2023-01-18T01:27:06.461Z,7.73
2023-01-18T01:29:34.772Z,8.73
2023-01-18T01:32:03.569Z,7.67
2023-01-18T01:34:33.492Z,7.63
2023-01-18T01:37:01.741Z,7.97
2023-01-18T01:39:30.492Z,8.17
2023-01-18T01:41:59.055Z,10.73
2023-01-18T01:44:54.931Z,9.13
2023-01-18T01:47:27.507Z,12.13
2023-01-18T01:49:59.916Z,8.00
2023-01-18T01:52:30.160Z,8.07
2023-01-18T01:54:59.751Z,10.27
2023-01-18T01:57:28.970Z,9.27
2023-01-18T01:59:59.601Z,8.30
2023-01-18T02:02:28.040Z,9.07
2023-01-18T02:04:58.105Z,9.47
2023-01-18T02:07:28.782Z,12.30
2023-01-18T02:09:57.992Z,9.73
2023-01-18T02:12:26.486Z,9.30
2023-01-18T02:14:55.401Z,12.83
2023-01-18T02:17:31.581Z,8.97
2023-01-18T02:20:10.360Z,9.23
2023-01-18T02:22:46.740Z,8.93
2023-01-18T02:25:24.135Z,10.47
2023-01-18T02:27:57.603Z,11.50
2023-01-18T02:30:31.831Z,13.73
2023-01-18T02:33:05.249Z,11.47
2023-01-18T02:35:43.896Z,11.20
2023-01-18T02:38:14.684Z,15.27
2023-01-18T02:40:51.316Z,13.37
2023-01-18T02:43:39.363Z,13.67
2023-01-18T02:46:30.026Z,12.20
2023-01-18T02:48:58.907Z,11.77
2023-01-18T02:51:27.296Z,12.57
2023-01-18T02:53:55.486Z,14.63
2023-01-18T02:56:26.141Z,13.67
2023-01-18T02:58:58.855Z,16.07
2023-01-18T03:01:31.864Z,14.90
2023-01-18T03:04:01.275Z,11.87
2023-01-18T03:06:30.463Z,12.27
2023-01-18T03:08:59.854Z,13.97
2023-01-18T03:11:31.588Z,13.03
2023-01-18T03:14:03.426Z,11.53
2023-01-18T03:16:40.572Z,13.83
2023-01-18T03:19:31.677Z,11.00
2023-01-18T03:22:00.709Z,10.97
2023-01-18T03:24:30.272Z,14.37
2023-01-18T03:27:18.249Z,11.53
2023-01-18T03:30:05.285Z,12.27
2023-01-18T03:32:53.326Z,13.83
2023-01-18T03:35:26.705Z,14.37
2023-01-18T03:37:56.104Z,12.57
2023-01-18T03:40:26.252Z,15.30
2023-01-18T03:42:57.564Z,15.60
2023-01-18T03:45:29.050Z,13.97
2023-01-18T03:47:58.674Z,13.10
2023-01-18T03:50:31.262Z,11.33
2023-01-18T03:53:01.890Z,14.33
2023-01-18T03:55:36.084Z,11.77
2023-01-18T03:58:07.476Z,13.67
2023-01-18T04:00:35.708Z,16.47
2023-01-18T04:03:05.449Z,12.87
2023-01-18T04:05:34.094Z,12.93
2023-01-18T04:08:02.464Z,12.40
2023-01-18T04:10:30.696Z,13.70
2023-01-18T04:12:59.357Z,14.30
2023-01-18T04:15:27.766Z,17.67
2023-01-18T04:17:56.048Z,14.47
2023-01-18T04:20:25.839Z,17.40
2023-01-18T04:22:54.513Z,15.80
2023-01-18T04:25:22.972Z,16.83
2023-01-18T04:27:51.174Z,20.27
2023-01-18T04:30:19.677Z,17.20
2023-01-18T04:32:47.885Z,18.27
2023-01-18T04:35:16.515Z,14.70
2023-01-18T04:37:46.147Z,18.00
2023-01-18T04:40:14.582Z,18.10
2023-01-18T04:42:42.753Z,16.80
2023-01-18T04:45:14.065Z,20.10
2023-01-18T04:47:42.788Z,16.10
2023-01-18T04:50:11.831Z,15.77
2023-01-18T04:52:40.122Z,16.07
2023-01-18T04:55:11.618Z,15.57
2023-01-18T04:57:39.864Z,16.13
2023-01-18T05:00:09.314Z,16.40
2023-01-18T05:02:37.557Z,16.67
2023-01-18T05:05:06.039Z,17.00
2023-01-18T05:07:34.764Z,18.93
2023-01-18T05:10:03.073Z,16.43
2023-01-18T05:12:32.797Z,18.13
2023-01-18T05:15:03.325Z,15.33
2023-01-18T05:17:34.727Z,16.27
2023-01-18T05:20:04.392Z,15.23
2023-01-18T05:22:33.022Z,15.73
2023-01-18T05:25:01.839Z,16.23
2023-01-18T05:27:30.178Z,16.60
2023-01-18T05:30:01.819Z,16.10
2023-01-18T05:32:30.107Z,15.03
2023-01-18T05:34:58.327Z,13.80
2023-01-18T05:37:26.578Z,16.70
2023-01-18T05:39:54.812Z,17.13
2023-01-18T05:42:23.007Z,14.90
2023-01-18T05:44:51.193Z,16.47
2023-01-18T05:47:20.853Z,15.43
2023-01-18T05:49:49.477Z,16.63
2023-01-18T05:52:17.998Z,21.43
2023-01-18T05:54:46.298Z,17.07
2023-01-18T05:57:17.891Z,16.83
2023-01-18T05:59:46.143Z,15.80
2023-01-18T06:02:14.433Z,17.63
2023-01-18T06:04:44.670Z,15.10
2023-01-18T06:07:13.979Z,15.77
2023-01-18T06:09:43.030Z,15.50
2023-01-18T06:12:11.331Z,15.70
2023-01-18T06:14:39.544Z,14.90
2023-01-18T06:17:08.909Z,17.70
2023-01-18T06:19:37.243Z,14.30
2023-01-18T06:22:06.829Z,14.70
2023-01-18T06:24:35.215Z,15.13
2023-01-18T06:27:04.170Z,14.43
2023-01-18T06:29:58.033Z,14.57
2023-01-18T06:32:26.374Z,14.53
2023-01-18T06:34:54.580Z,17.13
2023-01-18T06:37:25.659Z,15.23
2023-01-18T06:39:53.972Z,15.23
2023-01-18T06:42:22.175Z,15.33
2023-01-18T06:44:50.422Z,15.77
2023-01-18T06:47:19.925Z,16.03
2023-01-18T06:49:48.678Z,15.77
2023-01-18T06:52:17.763Z,16.27
2023-01-18T06:54:47.404Z,13.20
2023-01-18T06:57:15.685Z,18.93
2023-01-18T06:59:43.881Z,15.03
2023-01-18T07:02:14.757Z,17.30
2023-01-18T07:04:45.258Z,15.63
2023-01-18T07:07:13.678Z,17.47
2023-01-18T07:09:41.908Z,14.57
2023-01-18T07:12:11.572Z,15.83
2023-01-18T07:14:39.820Z,14.00
2023-01-18T07:17:08.578Z,15.13
2023-01-18T07:19:36.904Z,13.93
2023-01-18T07:22:05.176Z,14.27
2023-01-18T07:24:33.667Z,15.27
2023-01-18T07:27:03.265Z,12.63
2023-01-18T07:29:32.943Z,20.53
2023-01-18T07:32:02.153Z,12.53
2023-01-18T07:34:30.482Z,14.70
2023-01-18T07:36:58.731Z,14.90
2023-01-18T07:39:26.929Z,18.07
2023-01-18T07:41:55.172Z,15.10
2023-01-18T07:44:23.566Z,15.37
2023-01-18T07:46:53.220Z,13.00
2023-01-18T07:49:21.485Z,14.10
2023-01-18T07:51:49.712Z,14.30
2023-01-18T07:54:19.067Z,17.33
2023-01-18T07:56:47.322Z,14.70
2023-01-18T07:59:15.917Z,16.20
2023-01-18T08:04:11.566Z,15.53
2023-01-18T08:06:39.819Z,17.50
2023-01-18T08:09:08.057Z,14.43
2023-01-18T08:11:36.282Z,17.23
2023-01-18T08:14:04.526Z,16.00
2023-01-18T08:16:32.885Z,15.07
2023-01-18T08:19:01.165Z,16.03
2023-01-18T08:21:31.816Z,15.50
2023-01-18T08:24:00.067Z,12.83
2023-01-18T08:26:28.303Z,15.27
2023-01-18T08:28:57.026Z,13.17
2023-01-18T08:31:25.290Z,12.53
2023-01-18T08:33:54.140Z,14.07
2023-01-18T08:36:23.308Z,16.93
2023-01-18T08:38:53.808Z,15.20
2023-01-18T08:41:22.691Z,14.93
2023-01-18T08:43:52.384Z,15.70
2023-01-18T08:46:20.986Z,17.10
2023-01-18T08:48:50.659Z,19.33
2023-01-18T08:51:19.124Z,24.77
2023-01-18T08:53:48.305Z,17.70
2023-01-18T08:56:18.033Z,17.53
2023-01-18T08:58:47.343Z,15.17
2023-01-18T09:01:25.243Z,17.97
2023-01-18T09:03:55.740Z,15.13
2023-01-18T09:06:24.081Z,28.23
2023-01-18T09:08:53.245Z,25.43
2023-01-18T09:11:23.081Z,31.87
2023-01-18T09:14:00.787Z,15.20
2023-01-18T09:16:30.216Z,13.97
2023-01-18T09:21:41.294Z,11.90
2023-01-18T09:24:09.579Z,12.17
2023-01-18T09:26:39.394Z,14.60
2023-01-18T09:29:08.064Z,17.60
2023-01-18T09:31:36.642Z,13.73
2023-01-18T09:34:18.585Z,13.67
2023-01-18T09:36:47.924Z,16.60
2023-01-18T09:39:16.312Z,13.13
2023-01-18T09:41:48.833Z,16.47
2023-01-18T09:44:20.102Z,15.43
2023-01-18T09:46:54.090Z,15.10
2023-01-18T09:49:25.732Z,15.50
2023-01-18T09:51:58.860Z,14.93
2023-01-18T09:54:34.266Z,14.80
2023-01-18T09:57:10.571Z,14.93
2023-01-18T09:59:42.557Z,13.57
2023-01-18T10:02:16.801Z,14.77
2023-01-18T10:04:47.586Z,13.03
2023-01-18T10:07:17.564Z,12.87
2023-01-18T10:09:48.608Z,12.13
2023-01-18T10:12:23.625Z,15.77
2023-01-18T10:14:54.888Z,12.23
2023-01-18T10:17:24.837Z,9.77
2023-01-18T10:19:53.516Z,12.30
2023-01-18T10:22:23.592Z,12.10
2023-01-18T10:24:55.291Z,11.30
2023-01-18T10:27:35.851Z,13.37
2023-01-18T10:30:20.661Z,10.73
2023-01-18T10:32:52.553Z,13.97
2023-01-18T10:35:24.679Z,13.60
2023-01-18T10:37:54.123Z,10.30
2023-01-18T10:40:23.151Z,9.83
2023-01-18T10:42:53.618Z,10.27
2023-01-18T10:45:23.672Z,10.77
2023-01-18T10:47:52.816Z,13.27
2023-01-18T10:50:24.620Z,9.80
2023-01-18T10:52:53.080Z,10.90
2023-01-18T10:55:21.920Z,9.97
2023-01-18T10:57:52.037Z,10.73
2023-01-18T11:00:23.142Z,9.93
2023-01-18T11:02:53.038Z,9.67
2023-01-18T11:05:24.294Z,9.63
2023-01-18T11:08:07.380Z,11.47
2023-01-18T11:10:37.941Z,10.63
2023-01-18T11:13:24.386Z,11.20
2023-01-18T11:16:04.404Z,11.37
2023-01-18T11:18:32.612Z,9.30
2023-01-18T11:21:00.837Z,9.63
2023-01-18T11:23:35.573Z,11.67
2023-01-18T11:26:05.709Z,10.50
2023-01-18T11:28:37.718Z,9.83
2023-01-18T11:31:10.238Z,11.57
2023-01-18T11:33:41.721Z,18.83
2023-01-18T11:36:10.266Z,11.80
2023-01-18T11:38:38.474Z,10.00
2023-01-18T11:41:15.283Z,7.73
2023-01-18T11:43:46.953Z,10.00
2023-01-18T11:46:24.420Z,9.47
2023-01-18T11:48:54.428Z,10.37
2023-01-18T11:51:25.888Z,12.40
2023-01-18T11:53:57.817Z,12.00
2023-01-18T11:56:31.705Z,12.83
2023-01-18T11:59:00.382Z,10.83
2023-01-18T12:01:43.380Z,10.77
2023-01-18T12:04:13.764Z,11.43
2023-01-18T12:06:48.260Z,8.53
2023-01-18T12:09:28.428Z,8.07
2023-01-18T12:12:18.141Z,9.80
2023-01-18T12:14:52.797Z,9.87
2023-01-18T12:17:30.845Z,10.93
2023-01-18T12:20:01.061Z,12.80
2023-01-18T12:22:47.341Z,11.20
2023-01-18T12:25:23.713Z,10.70
2023-01-18T12:27:58.143Z,11.23
2023-01-18T12:30:39.150Z,12.93
2023-01-18T12:33:15.418Z,9.23
2023-01-18T12:35:57.356Z,14.13
2023-01-18T12:38:27.671Z,12.70
2023-01-18T12:41:07.407Z,11.33
2023-01-18T12:43:41.153Z,13.43
2023-01-18T12:46:11.213Z,10.00
2023-01-18T12:48:48.190Z,11.33
2023-01-18T12:51:18.000Z,9.47
2023-01-18T12:53:48.237Z,10.07
2023-01-18T12:56:20.067Z,8.97
2023-01-18T12:58:50.741Z,11.20
2023-01-18T13:01:21.856Z,9.23
2023-01-18T13:03:52.296Z,10.50
2023-01-18T13:06:21.615Z,10.37
2023-01-18T13:08:51.632Z,11.07
2023-01-18T13:11:21.524Z,9.87
2023-01-18T13:13:53.278Z,12.50
2023-01-18T13:16:27.512Z,10.13
2023-01-18T13:19:00.632Z,10.47
2023-01-18T13:21:37.929Z,9.97
2023-01-18T13:24:10.438Z,12.17
2023-01-18T13:26:38.824Z,11.83
2023-01-18T13:29:16.708Z,8.63
2023-01-18T13:31:45.566Z,10.63
2023-01-18T13:34:24.395Z,9.00
2023-01-18T13:37:02.547Z,11.00
2023-01-18T13:39:45.820Z,10.97
2023-01-18T13:42:27.739Z,10.53
2023-01-18T13:45:14.022Z,8.87
2023-01-18T13:47:50.006Z,11.17
2023-01-18T13:50:38.273Z,9.70
2023-01-18T13:53:31.795Z,11.13
2023-01-18T13:56:30.311Z,12.17
2023-01-18T13:59:02.650Z,12.03
2023-01-18T14:01:34.438Z,9.77
2023-01-18T14:04:09.999Z,10.37
2023-01-18T14:06:46.254Z,13.73
2023-01-18T14:09:16.308Z,11.47
2023-01-18T14:11:51.973Z,9.87
2023-01-18T14:14:31.776Z,16.03
2023-01-18T14:17:01.984Z,11.17
2023-01-18T14:19:31.214Z,12.30
2023-01-18T14:22:11.318Z,9.87
2023-01-18T14:24:45.455Z,9.83
2023-01-18T14:27:16.778Z,10.20
2023-01-18T14:29:49.085Z,9.70
2023-01-18T14:32:21.752Z,8.90
2023-01-18T14:34:58.824Z,9.57
2023-01-18T14:37:28.926Z,10.10
2023-01-18T14:40:16.383Z,12.93
2023-01-18T14:42:49.878Z,10.77
2023-01-18T14:45:29.218Z,9.87
2023-01-18T14:48:02.647Z,10.07
2023-01-18T14:50:34.387Z,11.17
2023-01-18T14:53:02.783Z,10.30
2023-01-18T14:55:32.969Z,8.90
2023-01-18T14:58:05.614Z,8.73
2023-01-18T15:00:35.318Z,8.63
2023-01-18T15:03:03.721Z,10.13
2023-01-18T15:05:32.078Z,9.27
2023-01-18T15:08:00.955Z,7.93
2023-01-18T15:10:29.639Z,11.70
2023-01-18T15:13:01.315Z,9.10
2023-01-18T15:15:32.174Z,10.83
2023-01-18T15:18:05.625Z,9.53
2023-01-18T15:20:34.873Z,9.73
2023-01-18T15:23:03.473Z,8.60
2023-01-18T15:25:33.677Z,10.00
2023-01-18T15:28:22.429Z,8.97
2023-01-18T15:30:52.293Z,8.13
2023-01-18T15:33:23.650Z,8.00
2023-01-18T15:35:55.555Z,10.87
2023-01-18T15:38:24.227Z,12.37
2023-01-18T15:41:00.191Z,7.73
2023-01-18T15:43:31.273Z,8.63
2023-01-18T15:46:00.077Z,11.70
2023-01-18T15:48:32.988Z,12.40
2023-01-18T15:51:07.378Z,9.93
2023-01-18T15:53:37.893Z,11.23
2023-01-18T15:56:07.930Z,12.90
2023-01-18T15:58:38.262Z,10.53
2023-01-18T16:01:08.570Z,11.37
2023-01-18T16:03:40.271Z,13.97
2023-01-18T16:06:11.208Z,10.77
2023-01-18T16:08:58.019Z,11.13
2023-01-18T16:11:34.080Z,11.70
2023-01-18T16:14:07.772Z,9.03
2023-01-18T16:16:39.244Z,11.60
2023-01-18T16:19:27.497Z,10.17
2023-01-18T16:22:02.287Z,9.70
2023-01-18T16:24:37.286Z,9.47
2023-01-18T16:27:13.032Z,10.60
2023-01-18T16:29:43.921Z,10.33
2023-01-18T16:32:20.640Z,8.47
2023-01-18T16:34:50.673Z,11.33
2023-01-18T16:37:19.234Z,12.33
2023-01-18T16:39:48.769Z,11.77
2023-01-18T16:42:19.824Z,8.33
2023-01-18T16:44:50.603Z,9.03
2023-01-18T16:47:19.810Z,7.37
2023-01-18T16:49:48.050Z,7.40
2023-01-18T16:52:17.795Z,8.53
2023-01-18T16:54:47.043Z,8.20
2023-01-18T16:57:18.590Z,8.37
2023-01-18T16:59:46.920Z,7.27
2023-01-18T17:02:15.993Z,7.30
2023-01-18T17:04:45.373Z,10.60
2023-01-18T17:07:13.866Z,5.80
2023-01-18T17:09:48.665Z,9.13
2023-01-18T17:12:17.629Z,8.30
2023-01-18T17:14:46.062Z,9.87
2023-01-18T17:17:14.397Z,8.90
2023-01-18T17:19:42.719Z,12.40
2023-01-18T17:22:11.311Z,7.27
2023-01-18T17:24:39.951Z,9.17
2023-01-18T17:27:11.245Z,6.37
2023-01-18T17:29:39.687Z,8.57
2023-01-18T17:32:08.197Z,7.13
2023-01-18T17:34:36.562Z,7.20
2023-01-18T17:37:05.391Z,9.00
2023-01-18T17:39:44.042Z,7.27
2023-01-18T17:42:29.815Z,10.53
2023-01-18T17:45:03.702Z,8.03
2023-01-18T17:47:32.890Z,7.47
2023-01-18T17:50:03.548Z,7.97
2023-01-18T17:52:34.692Z,8.73
2023-01-18T17:55:06.479Z,9.73
2023-01-18T17:57:36.506Z,7.70
2023-01-18T18:00:08.308Z,6.33
2023-01-18T18:02:36.993Z,8.63
2023-01-18T18:05:28.294Z,9.07
2023-01-18T18:07:57.123Z,6.83
2023-01-18T18:10:36.238Z,8.90
2023-01-18T18:13:09.240Z,10.43
2023-01-18T18:15:42.178Z,9.43
2023-01-18T18:18:22.804Z,9.53
2023-01-18T18:20:52.378Z,7.90
2023-01-18T18:23:21.988Z,5.97
2023-01-18T18:25:50.607Z,8.20
2023-01-18T18:28:23.418Z,8.67
2023-01-18T18:30:55.229Z,10.27
2023-01-18T18:33:25.401Z,8.03
2023-01-18T18:35:54.897Z,9.00
2023-01-18T18:38:24.613Z,8.87
2023-01-18T18:40:54.118Z,12.50
2023-01-18T18:43:24.625Z,7.93
2023-01-18T18:45:53.320Z,14.30
2023-01-18T18:48:21.829Z,8.70
2023-01-18T18:50:52.773Z,10.03
2023-01-18T18:53:23.812Z,9.73
2023-01-18T18:55:59.805Z,10.57
2023-01-18T18:58:29.694Z,8.07
2023-01-18T19:00:58.182Z,10.63
2023-01-18T19:03:26.983Z,10.10
2023-01-18T19:05:55.800Z,10.03
2023-01-18T19:08:24.530Z,8.20
2023-01-18T19:10:53.346Z,11.67
2023-01-18T19:13:21.820Z,8.57
2023-01-18T19:15:51.889Z,12.13
2023-01-18T19:18:20.533Z,10.33
2023-01-18T19:20:51.750Z,11.10
2023-01-18T19:23:20.816Z,11.57
2023-01-18T19:25:49.257Z,10.80
2023-01-18T19:28:17.900Z,7.90
2023-01-18T19:30:46.594Z,7.70
2023-01-18T19:33:16.997Z,9.60
2023-01-18T19:35:47.436Z,9.73
2023-01-18T19:38:17.071Z,9.80
2023-01-18T19:40:45.750Z,9.70
2023-01-18T19:43:14.272Z,7.50
2023-01-18T19:45:44.539Z,9.90
2023-01-18T19:48:13.100Z,10.50
2023-01-18T19:50:44.707Z,9.70
2023-01-18T19:53:13.526Z,7.53
2023-01-18T19:55:42.911Z,10.67
2023-01-18T19:58:11.343Z,9.10
2023-01-18T20:00:41.349Z,7.00
2023-01-18T20:03:14.150Z,10.27
2023-01-18T20:05:45.569Z,9.23
2023-01-18T20:08:13.968Z,7.40
2023-01-18T20:10:42.456Z,8.63
2023-01-18T20:13:10.902Z,6.80
2023-01-18T20:15:41.755Z,8.13
2023-01-18T20:18:10.197Z,9.47
2023-01-18T20:20:38.596Z,9.07
2023-01-18T20:23:08.685Z,8.87
2023-01-18T20:25:37.061Z,8.37
2023-01-18T20:28:05.517Z,9.77
2023-01-18T20:30:34.227Z,8.63
2023-01-18T20:33:03.135Z,10.17
2023-01-18T20:35:31.715Z,9.73
2023-01-18T20:38:00.164Z,9.47
2023-01-18T20:40:29.980Z,8.20
2023-01-18T20:42:59.129Z,7.07
2023-01-18T20:45:27.785Z,6.53
2023-01-18T20:47:56.099Z,6.53
2023-01-18T20:50:24.592Z,8.13
2023-01-18T20:52:53.565Z,7.47
2023-01-18T20:55:22.105Z,8.40
2023-01-18T20:57:51.893Z,9.20
2023-01-18T21:00:21.076Z,6.67
2023-01-18T21:02:49.760Z,9.93
2023-01-18T21:05:18.477Z,7.53
2023-01-18T21:07:46.734Z,7.97
2023-01-18T21:10:15.368Z,8.43
2023-01-18T21:12:48.115Z,7.07
2023-01-18T21:15:18.990Z,8.50
2023-01-18T21:17:47.401Z,9.70
2023-01-18T21:20:15.915Z,7.73
2023-01-18T21:22:44.289Z,6.47
2023-01-18T21:25:12.617Z,7.00
2023-01-18T21:27:43.216Z,10.80
2023-01-18T21:30:12.456Z,7.27
2023-01-18T21:32:42.112Z,7.57
2023-01-18T21:35:11.569Z,8.60
2023-01-18T21:37:39.871Z,7.97
2023-01-18T21:40:09.006Z,10.63
2023-01-18T21:42:55.416Z,8.13
2023-01-18T21:45:41.588Z,7.23
2023-01-18T21:48:11.287Z,9.00
2023-01-18T21:50:58.809Z,8.73
2023-01-18T21:53:44.818Z,9.87
2023-01-18T21:56:13.681Z,9.27
2023-01-18T21:58:54.141Z,8.00
2023-01-18T22:01:23.838Z,7.37
2023-01-18T22:04:11.835Z,9.57
2023-01-18T22:06:40.460Z,12.33
2023-01-18T22:09:09.169Z,10.40
2023-01-18T22:11:37.634Z,11.13
2023-01-18T22:14:06.253Z,8.90
2023-01-18T22:16:34.688Z,9.27
2023-01-18T22:19:04.925Z,9.80
2023-01-18T22:21:33.905Z,8.30
2023-01-18T22:24:02.306Z,11.77
2023-01-18T22:26:31.305Z,8.83
2023-01-18T22:28:59.741Z,8.77
2023-01-18T22:31:28.117Z,9.07
2023-01-18T22:33:57.766Z,8.07
2023-01-18T22:36:27.738Z,11.73
2023-01-18T22:38:56.073Z,10.10
2023-01-18T22:41:25.254Z,8.90
2023-01-18T22:43:53.854Z,9.70
2023-01-18T22:46:23.095Z,9.87
2023-01-18T22:48:51.495Z,10.03
2023-01-18T22:51:21.100Z,9.87
2023-01-18T22:53:51.228Z,10.47
2023-01-18T22:56:20.751Z,9.27
2023-01-18T22:58:49.446Z,9.43
2023-01-18T23:01:18.955Z,10.07
2023-01-18T23:03:47.377Z,10.23
2023-01-18T23:06:15.916Z,9.93
2023-01-18T23:08:44.625Z,10.87
2023-01-18T23:11:15.637Z,8.87
2023-01-18T23:13:44.413Z,9.10
2023-01-18T23:16:33.580Z,9.87
2023-01-18T23:19:01.874Z,10.27
2023-01-18T23:21:30.154Z,11.23
2023-01-18T23:23:58.444Z,10.33
2023-01-18T23:26:28.073Z,12.07
2023-01-18T23:28:56.360Z,9.97
2023-01-18T23:31:24.681Z,12.33
2023-01-18T23:33:53.172Z,9.30
2023-01-18T23:36:23.561Z,11.70
2023-01-18T23:39:09.740Z,10.13
2023-01-18T23:41:57.109Z,11.73
2023-01-18T23:44:43.202Z,10.90
2023-01-18T23:47:29.287Z,13.20
2023-01-18T23:50:15.217Z,14.43
2023-01-18T23:53:01.296Z,11.23
2023-01-18T23:55:29.603Z,12.10
2023-01-18T23:58:00.268Z,11.03
